createdAt,value
2022-10-28T00:01:13.990Z,100159.31
2022-10-28T00:04:02.775Z,100162.19
2022-10-28T00:06:51.624Z,100163.25
2022-10-28T00:09:39.367Z,100165.34
2022-10-28T00:12:26.752Z,100159.28
2022-10-28T00:15:14.033Z,100157.16
2022-10-28T00:18:01.684Z,100157.41
2022-10-28T00:20:49.233Z,100164.47
2022-10-28T00:23:38.517Z,100159.00
2022-10-28T00:26:28.790Z,100163.22
2022-10-28T00:29:18.695Z,100163.72
2022-10-28T00:32:06.595Z,100163.97
2022-10-28T00:34:54.158Z,100157.38
2022-10-28T00:37:41.486Z,100163.38
2022-10-28T00:40:35.176Z,100163.84
2022-10-28T00:43:36.604Z,100161.97
2022-10-28T00:46:32.210Z,100169.28
2022-10-28T00:49:25.213Z,100171.38
2022-10-28T00:52:18.336Z,100171.88
2022-10-28T00:55:06.900Z,100160.28
2022-10-28T00:57:57.983Z,100165.06
2022-10-28T01:00:45.616Z,100167.44
2022-10-28T01:03:33.371Z,100166.63
2022-10-28T01:06:21.533Z,100164.25
2022-10-28T01:09:08.761Z,100163.69
2022-10-28T01:12:01.913Z,100150.25
2022-10-28T01:15:05.965Z,100159.66
2022-10-28T01:18:01.693Z,100161.72
2022-10-28T01:21:59.028Z,100152.50
2022-10-28T01:25:10.626Z,100148.06
2022-10-28T01:28:34.607Z,100148.06
2022-10-28T01:31:41.328Z,100149.41
2022-10-28T01:34:38.329Z,100156.00
2022-10-28T01:37:34.703Z,100152.31
2022-10-28T01:40:32.313Z,100144.19
2022-10-28T01:43:29.626Z,100153.91
2022-10-28T01:46:21.836Z,100141.53
2022-10-28T01:49:17.383Z,100135.72
2022-10-28T01:52:08.602Z,100139.94
2022-10-28T01:55:01.827Z,100137.56
2022-10-28T01:57:51.016Z,100129.38
2022-10-28T02:00:39.010Z,100140.13
2022-10-28T02:03:27.057Z,100139.31
2022-10-28T02:06:20.441Z,100145.84
2022-10-28T02:09:29.455Z,100143.19
2022-10-28T02:12:26.817Z,100143.72
2022-10-28T02:15:39.554Z,100139.53
2022-10-28T02:18:36.346Z,100136.41
2022-10-28T02:21:37.690Z,100127.44
2022-10-28T02:24:37.649Z,100121.34
2022-10-28T02:27:35.332Z,100122.84
2022-10-28T02:30:26.447Z,100118.13
2022-10-28T02:33:19.789Z,100097.13
2022-10-28T02:36:13.456Z,100094.25
2022-10-28T02:39:03.646Z,100105.28
2022-10-28T02:41:55.689Z,100103.75
2022-10-28T02:44:49.979Z,100110.59
2022-10-28T02:47:44.038Z,100110.59
2022-10-28T02:50:36.740Z,100106.94
2022-10-28T02:53:31.342Z,100116.69
2022-10-28T02:56:22.800Z,100106.47
2022-10-28T02:59:12.757Z,100109.09
2022-10-28T03:02:00.943Z,100092.28
2022-10-28T03:04:48.887Z,100095.13
2022-10-28T03:07:36.816Z,100094.34
2022-10-28T03:10:24.861Z,100089.63
2022-10-28T03:13:14.223Z,100091.69
2022-10-28T03:16:02.402Z,100088.81
2022-10-28T03:18:51.496Z,100085.38
2022-10-28T03:21:39.486Z,100090.09
2022-10-28T03:24:27.538Z,100093.50
2022-10-28T03:27:15.876Z,100089.28
2022-10-28T03:30:05.584Z,100078.19
2022-10-28T03:32:54.415Z,100087.91
2022-10-28T03:35:42.800Z,100068.19
2022-10-28T03:38:31.012Z,100071.66
2022-10-28T03:41:19.223Z,100060.63
2022-10-28T03:44:07.860Z,100048.00
2022-10-28T03:46:57.606Z,100057.69
2022-10-28T03:49:45.710Z,100039.31
2022-10-28T03:52:33.715Z,100049.66
2022-10-28T03:55:23.818Z,100026.03
2022-10-28T03:58:11.581Z,100042.25
2022-10-28T04:00:59.615Z,100024.91
2022-10-28T04:03:49.257Z,100040.16
2022-10-28T04:06:37.572Z,100053.84
2022-10-28T04:09:25.683Z,100058.78
2022-10-28T04:12:13.489Z,100046.72
2022-10-28T04:15:01.231Z,100042.25
2022-10-28T04:17:49.282Z,100042.50
2022-10-28T04:20:38.545Z,100061.97
2022-10-28T04:23:26.534Z,100057.53
2022-10-28T04:26:15.499Z,100044.44
2022-10-28T04:29:03.468Z,100059.19
2022-10-28T04:31:52.371Z,100058.69
2022-10-28T04:34:41.209Z,100048.47
2022-10-28T04:37:30.581Z,100044.53
2022-10-28T04:40:18.822Z,100042.16
2022-10-28T04:43:08.611Z,100049.53
2022-10-28T04:45:57.838Z,100045.84
2022-10-28T04:48:45.658Z,100040.31
2022-10-28T04:51:33.453Z,100041.34
2022-10-28T04:54:22.506Z,100044.44
2022-10-28T04:57:10.190Z,100040.50
2022-10-28T04:59:58.159Z,100046.00
2022-10-28T05:02:46.288Z,100053.13
2022-10-28T05:05:34.260Z,100039.78
2022-10-28T05:08:21.932Z,100045.34
2022-10-28T05:11:11.564Z,100048.72
2022-10-28T05:13:59.905Z,100057.69
2022-10-28T05:16:48.286Z,100059.03
2022-10-28T05:19:36.195Z,100061.34
2022-10-28T05:22:24.243Z,100050.28
2022-10-28T05:25:12.258Z,100066.03
2022-10-28T05:28:02.119Z,100055.78
2022-10-28T05:30:52.078Z,100044.91
2022-10-28T05:33:41.085Z,100049.38
2022-10-28T05:36:29.241Z,100052.28
2022-10-28T05:39:17.074Z,100055.13
2022-10-28T05:42:06.001Z,100063.00
2022-10-28T05:44:55.209Z,100062.75
2022-10-28T05:47:45.398Z,100044.88
2022-10-28T05:50:33.376Z,100043.84
2022-10-28T05:53:21.233Z,100053.84
2022-10-28T05:56:09.965Z,100048.59
2022-10-28T05:58:58.089Z,100052.06
2022-10-28T06:01:47.350Z,100058.41
2022-10-28T06:04:16.714Z,100066.81
2022-10-28T06:06:46.407Z,100059.72
2022-10-28T06:09:15.804Z,100040.25
2022-10-28T06:11:43.985Z,100038.69
2022-10-28T06:14:13.530Z,100045.22
2022-10-28T06:16:43.484Z,100038.38
2022-10-28T06:19:14.722Z,100031.31
2022-10-28T06:21:44.912Z,100027.09
2022-10-28T06:24:14.585Z,100022.34
2022-10-28T06:26:44.137Z,100023.13
2022-10-28T06:29:13.861Z,100018.69
2022-10-28T06:31:43.825Z,100023.19
2022-10-28T06:34:14.643Z,100025.59
2022-10-28T06:36:44.207Z,100020.09
2022-10-28T06:39:13.832Z,100020.09
2022-10-28T06:41:43.609Z,100034.06
2022-10-28T06:44:13.245Z,100037.47
2022-10-28T06:46:44.266Z,100033.53
2022-10-28T06:49:15.128Z,100035.91
2022-10-28T06:51:44.582Z,100049.31
2022-10-28T06:54:14.036Z,100053.53
2022-10-28T06:56:45.358Z,100066.13
2022-10-28T06:59:14.988Z,100063.25
2022-10-28T07:01:44.807Z,100067.69
2022-10-28T07:04:16.202Z,100074.56
2022-10-28T07:06:47.573Z,100065.66
2022-10-28T07:09:19.445Z,100055.94
2022-10-28T07:11:54.940Z,100061.94
2022-10-28T07:14:25.028Z,100073.88
2022-10-28T07:16:54.549Z,100079.94
2022-10-28T07:19:25.635Z,100075.63
2022-10-28T07:21:55.117Z,100095.59
2022-10-28T07:24:24.693Z,100083.56
2022-10-28T07:26:56.977Z,100081.25
2022-10-28T07:29:27.348Z,100081.00
2022-10-28T07:31:57.152Z,100088.91
2022-10-28T07:34:28.223Z,100083.97
2022-10-28T07:36:58.428Z,100089.47
2022-10-28T07:39:28.270Z,100078.72
2022-10-28T07:41:57.976Z,100084.75
2022-10-28T07:44:27.511Z,100089.22
2022-10-28T07:46:58.196Z,100084.50
2022-10-28T07:49:29.518Z,100077.44
2022-10-28T07:52:02.254Z,100081.09
2022-10-28T07:54:32.021Z,100087.13
2022-10-28T07:57:01.429Z,100095.84
2022-10-28T07:59:30.926Z,100083.25
2022-10-28T08:02:03.191Z,100072.25
2022-10-28T08:04:34.394Z,100084.41
2022-10-28T08:07:03.872Z,100083.91
2022-10-28T08:09:33.710Z,100082.03
2022-10-28T08:12:03.133Z,100093.13
2022-10-28T08:14:32.660Z,100101.81
2022-10-28T08:17:02.664Z,100091.88
2022-10-28T08:19:33.583Z,100088.47
2022-10-28T08:22:03.633Z,100098.22
2022-10-28T08:24:33.072Z,100092.22
2022-10-28T08:27:03.556Z,100101.97
2022-10-28T08:29:35.796Z,100093.28
2022-10-28T08:32:15.100Z,100111.75
2022-10-28T08:34:50.263Z,100097.81
2022-10-28T08:37:23.335Z,100097.81
2022-10-28T08:39:53.071Z,100092.84
2022-10-28T08:42:44.906Z,100091.28
2022-10-28T08:45:36.018Z,100101.59
2022-10-28T08:48:20.850Z,100089.06
2022-10-28T08:50:58.702Z,100085.44
2022-10-28T08:53:36.226Z,100087.88
2022-10-28T08:56:14.686Z,100090.84
2022-10-28T09:01:50.444Z,100090.72
2022-10-28T09:04:31.079Z,100090.53
2022-10-28T09:07:02.508Z,100093.75
2022-10-28T09:09:32.354Z,100087.50
2022-10-28T09:12:23.547Z,100083.25
2022-10-28T09:15:24.990Z,100085.34
2022-10-28T09:17:56.779Z,100070.84
2022-10-28T09:20:37.754Z,100080.81
2022-10-28T09:23:19.704Z,100080.81
2022-10-28T09:26:06.081Z,100085.03
2022-10-28T09:28:50.986Z,100088.44
2022-10-28T09:31:31.983Z,100084.22
2022-10-28T09:34:17.684Z,100085.00
2022-10-28T09:36:53.252Z,100080.53
2022-10-28T09:39:33.230Z,100084.22
2022-10-28T09:42:05.239Z,100086.31
2022-10-28T09:44:43.298Z,100085.78
2022-10-28T09:47:20.146Z,100086.31
2022-10-28T09:49:51.203Z,100092.41
2022-10-28T09:52:26.020Z,100095.28
2022-10-28T09:54:57.955Z,100099.75
2022-10-28T09:57:33.600Z,100111.63
2022-10-28T10:00:02.749Z,100098.88
2022-10-28T10:02:40.494Z,100093.22
2022-10-28T10:05:17.088Z,100091.16
2022-10-28T10:07:52.740Z,100087.78
2022-10-28T10:10:27.028Z,100091.53
2022-10-28T10:13:00.575Z,100096.69
2022-10-28T10:15:34.292Z,100088.31
2022-10-28T10:18:06.555Z,100095.22
2022-10-28T10:20:50.440Z,100096.38
2022-10-28T10:23:30.938Z,100093.78
2022-10-28T10:26:08.041Z,100084.88
2022-10-28T10:28:45.585Z,100087.31
2022-10-28T10:31:21.739Z,100079.06
2022-10-28T10:33:54.078Z,100073.97
2022-10-28T10:36:28.375Z,100075.25
2022-10-28T10:38:59.394Z,100085.09
2022-10-28T10:41:37.487Z,100088.66
2022-10-28T10:44:32.015Z,100075.50
2022-10-28T10:47:22.689Z,100073.38
2022-10-28T10:49:55.011Z,100070.75
2022-10-28T10:52:26.204Z,100068.50
2022-10-28T10:55:02.642Z,100076.16
2022-10-28T10:57:34.852Z,100064.16
2022-10-28T11:00:05.309Z,100067.34
2022-10-28T11:02:39.781Z,100063.25
2022-10-28T11:05:11.791Z,100052.75
2022-10-28T11:07:48.244Z,100055.84
2022-10-28T11:10:25.063Z,100052.31
2022-10-28T11:12:57.808Z,100047.81
2022-10-28T11:15:29.783Z,100042.19
2022-10-28T11:18:02.071Z,100037.66
2022-10-28T11:20:44.983Z,100041.91
2022-10-28T11:23:39.737Z,100034.38
2022-10-28T11:26:14.458Z,100027.91
2022-10-28T11:29:08.606Z,100029.31
2022-10-28T11:32:20.585Z,100026.38
2022-10-28T11:35:10.229Z,100019.59
2022-10-28T11:37:53.067Z,100019.97
2022-10-28T11:40:32.345Z,100012.00
2022-10-28T11:43:19.874Z,100019.94
2022-10-28T11:46:01.178Z,100020.78
2022-10-28T11:48:47.778Z,100012.97
2022-10-28T11:51:33.829Z,100019.31
2022-10-28T11:54:27.083Z,100006.63
2022-10-28T11:57:02.754Z,100009.53
2022-10-28T12:00:03.383Z,100012.16
2022-10-28T12:03:02.534Z,99997.53
2022-10-28T12:05:38.155Z,99992.75
2022-10-28T12:08:24.118Z,99983.94
2022-10-28T12:11:08.830Z,99988.06
2022-10-28T12:13:47.039Z,99985.81
2022-10-28T12:16:23.334Z,99973.84
2022-10-28T12:18:58.734Z,99980.34
2022-10-28T12:24:14.420Z,99983.00
2022-10-28T12:26:48.471Z,99967.72
2022-10-28T12:29:22.900Z,99981.03
2022-10-28T12:31:57.753Z,99970.97
2022-10-28T12:37:13.375Z,99955.72
2022-10-28T12:39:52.072Z,99949.81
2022-10-28T12:42:26.284Z,99959.91
2022-10-28T12:44:59.502Z,99970.59
2022-10-28T12:47:39.183Z,99968.91
2022-10-28T12:50:21.985Z,99968.59
2022-10-28T12:53:15.430Z,99958.25
2022-10-28T12:55:51.749Z,99961.41
2022-10-28T12:58:26.712Z,99955.34
2022-10-28T13:01:01.271Z,99953.78
2022-10-28T13:03:30.514Z,99952.53
2022-10-28T13:06:32.484Z,99948.41
2022-10-28T13:09:42.731Z,99950.69
2022-10-28T13:12:48.134Z,99947.81
2022-10-28T13:15:50.779Z,99949.19
2022-10-28T13:19:02.822Z,99944.44
2022-10-28T13:22:15.801Z,99947.06
2022-10-28T13:24:57.274Z,99944.38
2022-10-28T13:27:27.165Z,99948.66
2022-10-28T13:29:58.796Z,99946.09
2022-10-28T13:32:38.326Z,99943.59
2022-10-28T13:35:21.964Z,99946.31
2022-10-28T13:37:55.842Z,99935.81
2022-10-28T13:41:11.071Z,99950.00
2022-10-28T13:44:24.844Z,99936.94
2022-10-28T13:47:28.982Z,99941.75
2022-10-28T13:50:37.376Z,99941.91
2022-10-28T13:53:53.262Z,99941.25
2022-10-28T13:56:49.480Z,99938.69
2022-10-28T13:59:29.370Z,99939.50
2022-10-28T14:02:32.337Z,99939.28
2022-10-28T14:05:02.081Z,99936.94
2022-10-28T14:07:33.871Z,99926.13
2022-10-28T14:10:23.533Z,99928.56
2022-10-28T14:12:57.869Z,99931.81
2022-10-28T14:15:31.031Z,99922.59
2022-10-28T14:18:16.141Z,99931.47
2022-10-28T14:21:01.800Z,99934.53
2022-10-28T14:24:31.575Z,99940.38
2022-10-28T14:27:41.372Z,99952.34
2022-10-28T14:30:21.713Z,99942.41
2022-10-28T14:33:26.939Z,99948.34
2022-10-28T14:36:23.488Z,99952.84
2022-10-28T14:39:28.657Z,99960.72
2022-10-28T14:42:28.358Z,99957.66
2022-10-28T14:45:20.344Z,99955.59
2022-10-28T14:48:14.230Z,99957.00
2022-10-28T14:50:47.314Z,99951.47
2022-10-28T14:53:25.736Z,99956.19
2022-10-28T14:56:02.215Z,99957.00
2022-10-28T14:58:36.646Z,99957.28
2022-10-28T15:01:24.944Z,99949.09
2022-10-28T15:03:59.328Z,99952.56
2022-10-28T15:06:39.191Z,99958.56
2022-10-28T15:09:19.576Z,99953.25
2022-10-28T15:11:52.839Z,99945.56
2022-10-28T15:14:32.019Z,99945.28
2022-10-28T15:17:13.255Z,99945.56
2022-10-28T15:19:44.080Z,99948.53
2022-10-28T15:22:21.517Z,99947.25
2022-10-28T15:25:00.880Z,99947.34
2022-10-28T15:27:33.704Z,99946.38
2022-10-28T15:30:05.333Z,99943.25
2022-10-28T15:32:37.099Z,99945.97
2022-10-28T15:35:41.379Z,99950.50
2022-10-28T15:38:34.889Z,99949.88
2022-10-28T15:41:04.161Z,99943.41
2022-10-28T15:43:33.369Z,99952.22
2022-10-28T15:46:12.468Z,99955.75
2022-10-28T15:48:43.531Z,99956.63
2022-10-28T15:51:15.019Z,99963.63
2022-10-28T15:53:44.883Z,99954.16
2022-10-28T15:56:23.621Z,99950.06
2022-10-28T15:59:18.821Z,99951.97
2022-10-28T16:01:48.201Z,99952.28
2022-10-28T16:04:45.207Z,99958.47
2022-10-28T16:07:14.447Z,99972.78
2022-10-28T16:09:47.577Z,99967.56
2022-10-28T16:12:20.324Z,99972.38
2022-10-28T16:14:55.227Z,99974.53
2022-10-28T16:17:27.162Z,99971.63
2022-10-28T16:20:00.778Z,99973.81
2022-10-28T16:22:31.762Z,99974.09
2022-10-28T16:25:00.785Z,99976.25
2022-10-28T16:27:33.026Z,99974.69
2022-10-28T16:30:02.052Z,99975.81
2022-10-28T16:32:38.768Z,99971.38
2022-10-28T16:35:16.728Z,99965.38
2022-10-28T16:37:49.473Z,99969.69
2022-10-28T16:43:17.589Z,99974.63
2022-10-28T16:45:46.831Z,99981.56
2022-10-28T16:48:17.282Z,99984.31
2022-10-28T16:50:51.916Z,99987.81
2022-10-28T16:53:21.494Z,99992.13
2022-10-28T16:55:50.764Z,99999.06
2022-10-28T16:58:23.128Z,99999.88
2022-10-28T17:00:55.889Z,100007.88
2022-10-28T17:03:24.984Z,100006.09
2022-10-28T17:05:55.420Z,100006.97
2022-10-28T17:08:49.049Z,100013.88
2022-10-28T17:11:16.248Z,100014.50
2022-10-28T17:13:45.305Z,100005.03
2022-10-28T17:16:14.356Z,100006.69
2022-10-28T17:18:43.658Z,100011.78
2022-10-28T17:21:14.023Z,100006.25
2022-10-28T17:23:43.128Z,100010.53
2022-10-28T17:26:12.305Z,99998.94
2022-10-28T17:28:41.385Z,100006.63
2022-10-28T17:31:10.786Z,99996.34
2022-10-28T17:33:39.807Z,100007.19
2022-10-28T17:36:10.472Z,100007.50
2022-10-28T17:38:40.891Z,100014.44
2022-10-28T17:41:10.818Z,100014.19
2022-10-28T17:43:39.959Z,100020.84
2022-10-28T17:46:09.940Z,100025.34
2022-10-28T17:48:40.616Z,100025.88
2022-10-28T17:51:10.656Z,100028.81
2022-10-28T17:53:41.944Z,100015.66
2022-10-28T17:56:11.974Z,100025.22
2022-10-28T17:58:41.764Z,100023.97
2022-10-28T18:01:12.977Z,100038.03
2022-10-28T18:03:42.786Z,100034.88
2022-10-28T18:06:14.190Z,100033.63
2022-10-28T18:08:46.004Z,100031.78
2022-10-28T18:11:17.700Z,100024.47
2022-10-28T18:13:51.458Z,100032.41
2022-10-28T18:16:24.174Z,100036.19
2022-10-28T18:18:54.260Z,100048.38
2022-10-28T18:21:25.561Z,100040.47
2022-10-28T18:24:03.821Z,100044.72
2022-10-28T18:26:34.967Z,100044.19
2022-10-28T18:29:05.900Z,100047.38
2022-10-28T18:31:36.068Z,100045.25
2022-10-28T18:34:06.624Z,100048.94
2022-10-28T18:36:37.211Z,100044.25
2022-10-28T18:39:09.740Z,100051.63
2022-10-28T18:41:42.657Z,100055.34
2022-10-28T18:44:17.168Z,100058.28
2022-10-28T18:46:46.735Z,100063.84
2022-10-28T18:49:16.179Z,100060.22
2022-10-28T18:51:45.798Z,100065.78
2022-10-28T18:54:16.898Z,100063.94
2022-10-28T18:56:48.001Z,100060.28
2022-10-28T18:59:18.086Z,100070.84
2022-10-28T19:01:51.015Z,100065.06
2022-10-28T19:04:20.477Z,100061.09
2022-10-28T19:06:49.868Z,100061.63
2022-10-28T19:09:20.638Z,100067.19
2022-10-28T19:11:49.860Z,100057.66
2022-10-28T19:14:19.222Z,100059.25
2022-10-28T19:16:48.712Z,100059.53
2022-10-28T19:19:17.912Z,100065.09
2022-10-28T19:21:47.235Z,100062.75
2022-10-28T19:24:16.557Z,100058.81
2022-10-28T19:26:47.228Z,100073.31
2022-10-28T19:29:16.463Z,100071.75
2022-10-28T19:31:45.772Z,100068.34
2022-10-28T19:34:15.420Z,100068.59
2022-10-28T19:36:44.650Z,100067.03
2022-10-28T19:39:13.882Z,100067.84
2022-10-28T19:41:43.483Z,100077.38
2022-10-28T19:44:14.575Z,100072.88
2022-10-28T19:46:43.866Z,100069.72
2022-10-28T19:49:13.327Z,100072.13
2022-10-28T19:51:43.107Z,100076.34
2022-10-28T19:54:15.118Z,100076.88
2022-10-28T19:56:45.315Z,100090.59
2022-10-28T19:59:16.940Z,100076.34
2022-10-28T20:01:46.645Z,100099.84
2022-10-28T20:04:34.583Z,100104.06
2022-10-28T20:07:23.515Z,100111.97
2022-10-28T20:10:11.255Z,100114.09
2022-10-28T20:12:58.801Z,100108.53
2022-10-28T20:15:47.940Z,100096.72
2022-10-28T20:18:36.216Z,100114.34
2022-10-28T20:21:27.232Z,100100.38
2022-10-28T20:24:15.717Z,100108.56
2022-10-28T20:27:03.311Z,100112.50
2022-10-28T20:29:51.366Z,100104.34
2022-10-28T20:32:40.516Z,100111.72
2022-10-28T20:35:29.416Z,100102.50
2022-10-28T20:38:18.896Z,100119.09
2022-10-28T20:41:08.721Z,100121.22
2022-10-28T20:43:57.292Z,100113.81
2022-10-28T20:46:48.036Z,100111.19
2022-10-28T20:49:42.791Z,100125.44
2022-10-28T20:52:30.896Z,100106.44
2022-10-28T20:55:18.895Z,100116.72
2022-10-28T20:58:06.596Z,100122.25
2022-10-28T21:03:44.746Z,100130.19
2022-10-28T21:06:33.773Z,100132.75
2022-10-28T21:09:21.097Z,100138.00
2022-10-28T21:12:08.668Z,100129.56
2022-10-28T21:14:56.328Z,100132.97
2022-10-28T21:17:44.165Z,100125.03
2022-10-28T21:20:31.722Z,100130.06
2022-10-28T21:23:20.705Z,100122.13
2022-10-28T21:26:11.160Z,100133.47
2022-10-28T21:28:58.355Z,100131.88
2022-10-28T21:31:45.687Z,100140.03
2022-10-28T21:34:33.028Z,100138.47
2022-10-28T21:37:21.154Z,100150.28
2022-10-28T21:40:12.528Z,100151.59
2022-10-28T21:42:59.993Z,100148.44
2022-10-28T21:45:47.256Z,100148.16
2022-10-28T21:48:36.667Z,100148.69
2022-10-28T21:51:24.317Z,100148.94
2022-10-28T21:54:11.504Z,100151.56
2022-10-28T21:57:00.134Z,100150.75
2022-10-28T21:59:49.575Z,100154.41
2022-10-28T22:02:37.011Z,100159.88
2022-10-28T22:05:24.685Z,100164.09
2022-10-28T22:08:12.218Z,100155.09
2022-10-28T22:11:01.946Z,100157.19
2022-10-28T22:13:57.534Z,100157.19
2022-10-28T22:16:45.138Z,100165.09
2022-10-28T22:19:32.380Z,100167.72
2022-10-28T22:22:19.740Z,100155.09
2022-10-28T22:25:10.423Z,100162.44
2022-10-28T22:27:58.295Z,100147.44
2022-10-28T22:30:47.062Z,100157.16
2022-10-28T22:33:35.004Z,100150.56
2022-10-28T22:36:27.353Z,100155.53
2022-10-28T22:39:14.861Z,100164.47
2022-10-28T22:42:02.870Z,100151.03
2022-10-28T22:44:50.258Z,100157.03
2022-10-28T22:47:38.854Z,100155.97
2022-10-28T22:50:26.543Z,100154.38
2022-10-28T22:53:13.784Z,100154.09
2022-10-28T22:56:01.266Z,100145.88
2022-10-28T22:58:49.312Z,100143.50
2022-10-28T23:01:36.747Z,100143.78
2022-10-28T23:04:25.848Z,100148.50
2022-10-28T23:07:13.475Z,100145.03
2022-10-28T23:10:00.767Z,100146.34
2022-10-28T23:12:48.148Z,100133.97
2022-10-28T23:15:35.608Z,100142.88
2022-10-28T23:18:27.358Z,100137.88
2022-10-28T23:21:19.089Z,100153.09
2022-10-28T23:24:07.622Z,100145.66
2022-10-28T23:26:55.259Z,100129.34
2022-10-28T23:29:42.613Z,100133.78
2022-10-28T23:32:31.399Z,100123.53
2022-10-28T23:35:18.913Z,100131.38
2022-10-28T23:38:09.101Z,100126.63
2022-10-28T23:40:58.611Z,100125.31
2022-10-28T23:43:46.518Z,100127.13
2022-10-28T23:46:37.375Z,100136.34
2022-10-28T23:49:25.031Z,100141.59
2022-10-28T23:52:12.423Z,100133.47
2022-10-28T23:55:01.019Z,100138.72
2022-10-28T23:57:48.556Z,100131.88
